KCAO/CAO METAR and TAF weather

Enter ICAO airport designator
Station Type Date Time Source
KCAO METAR 2022/01/29 12:55 UTC NOAA

KCAO 291255Z AUTO 25012KT 10SM CLR M01/M14 A3021 RMK AO2 SLP245 T10111139


Station Type Date Time Source
KCAO Decoded METAR 2022/01/29 12:55 UTC NOAA

CLAYTON MUNICIPAL AIRPARK, NM, United States (KCAO) 36-27N 103-09W 1514M
Jan 29, 2022 - 07:55 AM EST / 2022.01.29 1255 UTC
Wind: from the WSW (250 degrees) at 14 MPH (12 KT):0
Visibility: 10 mile(s):0
Sky conditions: clear
Temperature: 30.0 F (-1.1 C)
Windchill: 19 F (-7 C):1
Dew Point: 7.0 F (-13.9 C)
Relative Humidity: 37%
Pressure (altimeter): 30.21 in. Hg (1023 hPa)
ob: KCAO 291255Z AUTO 25012KT 10SM CLR M01/M14 A3021 RMK AO2 SLP245 T10111139
cycle: 13

Station Type Date Time Source
KCAO TAF UTC NOAA

Error!

Example: see airport list